createdAt,value
2023-01-11T00:00:05.054Z,20.11
2023-01-11T00:05:06.189Z,20.06
2023-01-11T00:10:01.885Z,20.08
2023-01-11T00:14:55.227Z,20.09
2023-01-11T00:19:49.120Z,20.09
2023-01-11T00:24:43.001Z,20.07
2023-01-11T00:29:37.183Z,19.95
2023-01-11T00:34:30.954Z,19.84
2023-01-11T00:39:24.233Z,20.06
2023-01-11T00:44:35.814Z,20.06
2023-01-11T00:49:28.672Z,19.94
2023-01-11T00:54:22.469Z,19.97
2023-01-11T00:59:16.181Z,19.96
2023-01-11T01:04:09.407Z,19.92
2023-01-11T01:09:03.016Z,20.04
2023-01-11T01:14:15.305Z,20.05
2023-01-11T01:19:09.867Z,20.05
2023-01-11T01:24:03.627Z,20.05
2023-01-11T01:28:57.411Z,20.04
2023-01-11T01:33:51.581Z,20.01
2023-01-11T01:38:45.228Z,20.02
2023-01-11T01:43:56.525Z,20.02
2023-01-11T01:49:11.662Z,20.02
2023-01-11T01:54:09.665Z,19.93
2023-01-11T01:59:13.754Z,19.96
2023-01-11T02:04:13.728Z,20.02
2023-01-11T02:09:19.437Z,20.00
2023-01-11T02:14:17.185Z,20.00
2023-01-11T02:19:22.314Z,19.99
2023-01-11T02:24:21.234Z,20.02
2023-01-11T02:29:38.234Z,19.88
2023-01-11T02:34:44.920Z,20.02
2023-01-11T02:39:58.694Z,20.00
2023-01-11T02:45:19.026Z,20.00
2023-01-11T02:50:44.623Z,20.00
2023-01-11T02:55:44.138Z,19.93
2023-01-11T03:00:42.036Z,20.01
2023-01-11T03:05:40.655Z,20.00
2023-01-11T03:10:42.600Z,19.99
2023-01-11T03:15:41.014Z,20.00
2023-01-11T03:20:42.719Z,19.96
2023-01-11T03:25:54.363Z,19.98
2023-01-11T03:30:51.417Z,19.88
2023-01-11T03:36:17.770Z,19.98
2023-01-11T03:41:19.856Z,19.88
2023-01-11T03:46:36.957Z,20.00
2023-01-11T03:51:34.711Z,19.97
2023-01-11T03:56:57.552Z,19.98
2023-01-11T04:01:54.409Z,19.89
2023-01-11T04:06:46.755Z,19.96
2023-01-11T04:11:40.420Z,19.87
2023-01-11T04:16:33.723Z,19.99
2023-01-11T04:21:26.415Z,19.93
2023-01-11T04:26:20.433Z,19.88
2023-01-11T04:31:13.513Z,19.85
2023-01-11T04:36:10.960Z,19.97
2023-01-11T04:41:24.248Z,19.88
2023-01-11T04:46:16.909Z,19.98
2023-01-11T04:51:11.513Z,19.86
2023-01-11T04:56:05.548Z,19.94
2023-01-11T05:00:58.182Z,19.96
2023-01-11T05:05:58.947Z,19.97
2023-01-11T05:10:56.575Z,19.97
2023-01-11T05:15:50.361Z,19.85
2023-01-11T05:20:44.412Z,19.93
2023-01-11T05:25:37.723Z,19.95
2023-01-11T05:30:31.157Z,19.94
2023-01-11T05:35:24.229Z,19.84
2023-01-11T05:40:18.690Z,19.95
2023-01-11T05:45:32.671Z,19.57
2023-01-11T05:50:26.754Z,19.78
2023-01-11T05:55:20.684Z,19.84
2023-01-11T06:00:15.925Z,19.87
2023-01-11T06:05:10.796Z,19.80
2023-01-11T06:10:04.185Z,19.84
2023-01-11T06:14:58.431Z,19.85
2023-01-11T06:19:53.704Z,19.42
2023-01-11T06:24:47.178Z,19.30
2023-01-11T06:29:40.813Z,19.50
2023-01-11T06:34:34.112Z,19.72
2023-01-11T06:39:28.058Z,19.61
2023-01-11T06:44:21.629Z,19.45
2023-01-11T06:49:16.080Z,19.38
2023-01-11T06:54:09.813Z,19.51
2023-01-11T06:59:03.394Z,19.48
2023-01-11T07:03:57.533Z,19.60
2023-01-11T07:08:50.970Z,19.58
2023-01-11T07:13:45.133Z,19.59
2023-01-11T07:18:38.550Z,19.47
2023-01-11T07:23:32.086Z,19.54
2023-01-11T07:28:26.029Z,19.52
2023-01-11T07:33:19.181Z,19.49
2023-01-11T07:38:13.069Z,19.48
2023-01-11T07:43:15.298Z,19.47
2023-01-11T07:48:10.926Z,19.34
2023-01-11T07:53:08.815Z,19.24
2023-01-11T07:58:03.896Z,19.27
2023-01-11T08:02:57.701Z,19.40
2023-01-11T08:07:52.396Z,19.45
2023-01-11T08:13:07.280Z,19.34
2023-01-11T08:18:01.105Z,19.30
2023-01-11T08:22:54.593Z,19.42
2023-01-11T08:27:47.769Z,19.39
2023-01-11T08:32:41.539Z,19.39
2023-01-11T08:37:35.154Z,19.26
2023-01-11T08:42:28.745Z,19.37
2023-01-11T08:47:23.048Z,19.25
2023-01-11T08:52:15.472Z,19.24
2023-01-11T08:57:09.426Z,19.34
2023-01-11T09:02:03.218Z,19.33
2023-01-11T09:06:56.555Z,19.32
2023-01-11T09:11:57.599Z,19.29
2023-01-11T09:16:52.316Z,19.27
2023-01-11T09:21:48.434Z,19.21
2023-01-11T09:26:44.093Z,19.28
2023-01-11T09:31:37.989Z,19.12
2023-01-11T09:36:33.456Z,19.03
2023-01-11T09:42:06.347Z,19.28
2023-01-11T09:47:14.300Z,19.28
2023-01-11T09:52:21.671Z,19.32
2023-01-11T09:57:41.896Z,19.22
2023-01-11T10:03:06.989Z,19.36
2023-01-11T10:18:22.983Z,19.38
2023-01-11T10:19:48.652Z,19.34
2023-01-11T10:24:47.688Z,19.42
2023-01-11T10:30:10.177Z,19.43
2023-01-11T10:35:33.986Z,19.44
2023-01-11T10:40:40.573Z,19.32
2023-01-11T10:45:51.341Z,19.46
2023-01-11T10:50:55.345Z,19.47
2023-01-11T10:56:37.180Z,19.48
2023-01-11T11:01:38.907Z,19.48
2023-01-11T11:07:03.760Z,19.51
2023-01-11T11:11:56.745Z,19.52
2023-01-11T11:17:26.528Z,19.49
2023-01-11T11:22:21.426Z,19.49
2023-01-11T11:27:39.803Z,19.50
2023-01-11T11:32:38.852Z,19.38
2023-01-11T11:37:58.320Z,19.51
2023-01-11T11:43:11.359Z,19.52
2023-01-11T11:48:07.662Z,19.53
2023-01-11T11:53:05.068Z,19.44
2023-01-11T11:58:03.442Z,19.39
2023-01-11T12:03:14.618Z,19.53
2023-01-11T12:08:07.656Z,19.48
2023-01-11T12:13:03.181Z,19.37
2023-01-11T12:18:15.483Z,19.39
2023-01-11T12:23:17.357Z,19.54
2023-01-11T12:28:28.664Z,19.57
2023-01-11T12:33:39.638Z,19.55
2023-01-11T12:38:40.992Z,19.60
2023-01-11T12:43:37.648Z,19.60
2023-01-11T12:48:47.785Z,19.59
2023-01-11T12:53:40.204Z,19.61
2023-01-11T12:58:47.368Z,19.51
2023-01-11T13:04:00.042Z,19.64
2023-01-11T13:09:10.744Z,19.66
2023-01-11T13:14:48.379Z,19.67
2023-01-11T13:19:58.987Z,19.59
2023-01-11T13:24:52.043Z,19.71
2023-01-11T13:29:48.740Z,19.69
2023-01-11T13:34:48.018Z,19.73
2023-01-11T13:40:07.722Z,19.59
2023-01-11T13:45:10.654Z,19.70
2023-01-11T13:50:22.318Z,19.78
2023-01-11T13:55:29.590Z,19.79
2023-01-11T14:00:38.441Z,19.68
2023-01-11T14:05:51.237Z,19.81
2023-01-11T14:11:19.755Z,19.78
2023-01-11T14:16:57.170Z,19.83
2023-01-11T14:22:09.011Z,19.81
2023-01-11T14:27:07.982Z,19.80
2023-01-11T14:32:13.315Z,19.84
2023-01-11T14:37:11.159Z,19.84
2023-01-11T14:42:31.354Z,19.89
2023-01-11T14:47:39.513Z,19.88
2023-01-11T14:52:40.618Z,19.81
2023-01-11T14:57:42.739Z,19.94
2023-01-11T15:02:36.498Z,19.96
2023-01-11T15:07:29.573Z,19.92
2023-01-11T15:12:27.311Z,20.00
2023-01-11T15:17:41.388Z,20.02
2023-01-11T15:22:35.470Z,20.10
2023-01-11T15:27:52.399Z,20.11
2023-01-11T15:32:46.487Z,20.09
2023-01-11T15:37:52.809Z,20.08
2023-01-11T15:43:36.639Z,20.09
2023-01-11T15:49:00.802Z,20.01
2023-01-11T15:54:01.979Z,19.88
2023-01-11T15:59:32.035Z,19.75
2023-01-11T16:04:34.433Z,19.76
2023-01-11T16:09:58.180Z,19.76
2023-01-11T16:15:28.920Z,19.71
2023-01-11T16:20:21.078Z,19.74
2023-01-11T16:25:15.469Z,19.64
2023-01-11T16:30:17.335Z,19.78
2023-01-11T16:35:25.492Z,19.75
2023-01-11T16:40:31.050Z,19.81
2023-01-11T16:45:40.042Z,19.81
2023-01-11T16:50:35.309Z,19.70
2023-01-11T16:55:32.961Z,19.71
2023-01-11T17:00:38.871Z,19.73
2023-01-11T17:05:32.423Z,19.81
2023-01-11T17:10:28.535Z,19.82
2023-01-11T17:15:49.716Z,19.76
2023-01-11T17:20:43.761Z,19.85
2023-01-11T17:25:44.238Z,19.78
2023-01-11T17:30:37.547Z,19.87
2023-01-11T17:35:42.057Z,19.85
2023-01-11T17:40:42.272Z,19.61
2023-01-11T17:45:36.479Z,19.77
2023-01-11T17:50:40.425Z,19.84
2023-01-11T17:55:35.010Z,19.76
2023-01-11T18:00:30.888Z,19.77
2023-01-11T18:05:29.673Z,19.79
2023-01-11T18:10:28.991Z,19.90
2023-01-11T18:15:45.406Z,19.92
2023-01-11T18:20:41.871Z,19.95
2023-01-11T18:25:35.957Z,19.82
2023-01-11T18:30:32.017Z,19.95
2023-01-11T18:35:25.220Z,19.93
2023-01-11T18:40:20.521Z,19.86
2023-01-11T18:45:15.241Z,20.04
2023-01-11T18:50:09.882Z,19.97
2023-01-11T18:55:04.094Z,19.79
2023-01-11T18:59:57.322Z,20.06
2023-01-11T19:04:51.493Z,20.02
2023-01-11T19:09:45.596Z,20.12
2023-01-11T19:14:39.412Z,20.09
2023-01-11T19:19:32.156Z,20.05
2023-01-11T19:24:25.377Z,20.20
2023-01-11T19:29:19.703Z,20.20
2023-01-11T19:34:13.206Z,20.00
2023-01-11T19:39:06.899Z,20.17
2023-01-11T19:44:01.114Z,20.11
2023-01-11T19:48:54.629Z,20.11
2023-01-11T19:53:48.222Z,20.08
2023-01-11T19:58:42.198Z,20.23
2023-01-11T20:03:35.754Z,20.22
2023-01-11T20:08:29.641Z,20.13
2023-01-11T20:13:23.581Z,20.22
2023-01-11T20:18:17.580Z,20.16
2023-01-11T20:23:11.905Z,20.27
2023-01-11T20:28:06.171Z,20.26
2023-01-11T20:33:00.240Z,20.25
2023-01-11T20:37:54.420Z,20.25
2023-01-11T20:42:47.446Z,20.15
2023-01-11T20:47:40.971Z,20.19
2023-01-11T20:52:35.049Z,20.27
2023-01-11T20:57:29.457Z,20.31
2023-01-11T21:02:22.858Z,20.12
2023-01-11T21:07:16.587Z,20.35
2023-01-11T21:12:09.816Z,20.26
2023-01-11T21:17:03.359Z,20.33
2023-01-11T21:21:57.276Z,20.31
2023-01-11T21:26:50.696Z,20.25
2023-01-11T21:31:44.153Z,20.37
2023-01-11T21:36:38.111Z,20.26
2023-01-11T21:41:51.375Z,20.35
2023-01-11T21:46:44.495Z,20.33
2023-01-11T21:51:38.482Z,20.17
2023-01-11T21:56:32.239Z,20.24
2023-01-11T22:01:25.684Z,20.36
2023-01-11T22:06:18.830Z,20.35
2023-01-11T22:11:14.062Z,20.21
2023-01-11T22:16:14.305Z,20.38
2023-01-11T22:21:28.680Z,20.32
2023-01-11T22:26:22.467Z,20.26
2023-01-11T22:31:15.910Z,20.23
2023-01-11T22:36:10.220Z,20.20
2023-01-11T22:41:03.881Z,20.25
2023-01-11T22:45:58.932Z,20.23
2023-01-11T22:50:52.455Z,20.31
2023-01-11T22:55:45.428Z,20.11
2023-01-11T23:00:39.442Z,20.26
2023-01-11T23:05:32.438Z,20.22
2023-01-11T23:10:26.338Z,20.31
2023-01-11T23:15:20.127Z,20.22
2023-01-11T23:20:14.873Z,20.20
2023-01-11T23:25:10.489Z,20.20
2023-01-11T23:30:03.497Z,20.24
2023-01-11T23:34:57.033Z,20.21
2023-01-11T23:39:50.193Z,20.24
2023-01-11T23:44:43.033Z,20.30
2023-01-11T23:49:35.485Z,20.30
2023-01-11T23:54:31.882Z,20.17
2023-01-11T23:59:25.904Z,20.29
